La Junta, New Mexico
Current Conditions -  °F | °C
As of 1:15 AM on Thursday 27 Nov 2014 (Local Time) from KLAM Reporting Station
Clear Clear  
Wind Chill: 40°   Ceiling: Unl
Heat Index: 40°   Visibility: 10mi
Dew Point: 22°   Wind: 0mph
Humidity: 48%   Direction: NA
Pressure: 30.46"   Gusts: NA
Location:  36.1441°N, 105.996°W
Report Text: KLAM 270815Z AUTO 00000KT 10SM CLR 05/M06 A3046 RMK AO2 T00451058
Loading
Personal Weather Stations






























Interactive Weather Map New forecast layout! Learn more

10-Day Weather Forecast

Advertisements
Track Severe Weather on mobile